Time;durP1;ratioP1;P1;durP2;ratioP2;P2;SDS_P1;SDS_P2;PMS_P1;PMS_P2;Temp;Humidity;BMP_temperature;BMP_pressure;BME280_temperature;BME280_humidity;BME280_pressure;Samples;Min_cycle;Max_cycle;Signal;HPM_P1;HPM_P2
2024/04/04 00:01:56;;;;;;;;;;;11.60;99.90;;;;;;4992935;28;19917;-72
2024/04/04 00:04:21;;;;;;;;;;;11.60;99.90;;;;;;4991953;28;19977;-72
2024/04/04 00:06:47;;;;;;;;;;;11.60;99.90;;;;;;4993018;28;19910;-71
2024/04/04 00:09:13;;;;;;;;;;;11.50;99.90;;;;;;5008360;28;19910;-71
2024/04/04 00:11:38;;;;;;;;;;;11.40;99.90;;;;;;5004274;28;19918;-71
2024/04/04 00:14:07;;;;;;;;;;;11.40;99.90;;;;;;4994653;28;19917;-75
2024/04/04 00:16:35;;;;;;;;;;;11.40;99.90;;;;;;4991570;28;19914;-75
2024/04/04 00:19:01;;;;;;;;;;;11.50;99.90;;;;;;4981538;28;19914;-75
2024/04/04 00:21:26;;;;;;;;;;;11.60;99.90;;;;;;4995356;28;19924;-75
2024/04/04 00:23:52;;;;;;;;;;;11.70;99.90;;;;;;4994587;28;19910;-76
2024/04/04 00:26:17;;;;;;;;;;;11.70;99.90;;;;;;4995597;28;19909;-76
2024/04/04 00:28:43;;;;;;;;;;;11.80;99.90;;;;;;4993295;28;20291;-75
2024/04/04 00:31:09;;;;;;;;;;;11.90;99.90;;;;;;4996914;28;19914;-75
2024/04/04 00:33:35;;;;;;;;;;;12.00;99.90;;;;;;4994275;28;19914;-75
2024/04/04 00:36:00;;;;;;;;;;;12.10;99.90;;;;;;4993872;28;19909;-76
2024/04/04 00:38:27;;;;;;;;;;;12.10;99.90;;;;;;4992563;28;20485;-75
2024/04/04 00:40:52;;;;;;;;;;;11.90;99.90;;;;;;4994760;28;19942;-74
2024/04/04 00:43:18;;;;;;;;;;;11.90;99.90;;;;;;4994927;28;20361;-74
2024/04/04 00:45:44;;;;;;;;;;;11.90;99.90;;;;;;4995461;28;19909;-75
2024/04/04 00:48:10;;;;;;;;;;;11.90;99.90;;;;;;4993580;28;19921;-74
2024/04/04 00:50:37;;;;;;;;;;;11.80;99.90;;;;;;4995506;28;20304;-75
2024/04/04 00:53:02;;;;;;;;;;;12.00;99.90;;;;;;4993843;28;19913;-75
2024/04/04 00:55:28;;;;;;;;;;;12.00;99.90;;;;;;4995393;28;19916;-75
2024/04/04 00:57:54;;;;;;;;;;;12.00;99.90;;;;;;4994767;28;20420;-75
2024/04/04 01:00:23;;;;;;;;;;;11.80;99.90;;;;;;4994173;28;19974;-75
2024/04/04 01:02:49;;;;;;;;;;;11.90;99.90;;;;;;4990174;28;19910;-76
2024/04/04 01:05:15;;;;;;;;;;;11.90;99.90;;;;;;4993163;28;19921;-75
2024/04/04 01:07:41;;;;;;;;;;;11.90;99.90;;;;;;5011854;28;19937;-75
2024/04/04 01:10:07;;;;;;;;;;;11.90;99.90;;;;;;5010322;28;20538;-75
2024/04/04 01:12:33;;;;;;;;;;;11.90;99.90;;;;;;5010277;28;19909;-75
2024/04/04 01:14:59;;;;;;;;;;;11.90;99.90;;;;;;5003627;28;19949;-75
2024/04/04 01:17:24;;;;;;;;;;;11.90;99.90;;;;;;4990282;28;19914;-75
2024/04/04 01:19:51;;;;;;;;;;;12.00;99.90;;;;;;4991624;28;19917;-75
2024/04/04 01:22:16;;;;;;;;;;;12.00;99.90;;;;;;4999243;28;19940;-76
2024/04/04 01:24:42;;;;;;;;;;;12.00;99.90;;;;;;5009318;28;20361;-76
2024/04/04 01:27:08;;;;;;;;;;;12.00;99.90;;;;;;5010098;28;19910;-76
2024/04/04 01:29:33;;;;;;;;;;;11.90;99.90;;;;;;5010623;28;19909;-76
2024/04/04 01:31:59;;;;;;;;;;;11.80;99.90;;;;;;5011475;28;20004;-75
2024/04/04 01:34:24;;;;;;;;;;;11.80;99.90;;;;;;5008791;28;19916;-76
2024/04/04 01:36:50;;;;;;;;;;;12.00;99.90;;;;;;4990512;28;19913;-76
2024/04/04 01:39:15;;;;;;;;;;;12.00;99.90;;;;;;5009104;28;20370;-76
2024/04/04 01:41:43;;;;;;;;;;;12.00;99.90;;;;;;5011511;28;19921;-76
2024/04/04 01:44:09;;;;;;;;;;;11.90;99.90;;;;;;5010114;28;19909;-75
2024/04/04 01:46:34;;;;;;;;;;;12.10;99.90;;;;;;5002259;28;20016;-75
2024/04/04 01:49:00;;;;;;;;;;;12.10;99.90;;;;;;4993071;28;19910;-75
2024/04/04 01:51:25;;;;;;;;;;;11.90;99.90;;;;;;5003725;28;19914;-75
2024/04/04 01:53:51;;;;;;;;;;;11.90;99.90;;;;;;4992448;28;19910;-75
2024/04/04 01:56:16;;;;;;;;;;;11.80;99.90;;;;;;5011002;28;19909;-75
2024/04/04 01:58:42;;;;;;;;;;;11.90;99.90;;;;;;5008559;28;19924;-76
2024/04/04 02:01:07;;;;;;;;;;;11.80;99.90;;;;;;5002034;28;19918;-75
2024/04/04 02:03:33;;;;;;;;;;;12.00;99.90;;;;;;4993051;28;19910;-75
2024/04/04 02:05:58;;;;;;;;;;;12.10;99.90;;;;;;5001011;28;19916;-76
2024/04/04 02:08:24;;;;;;;;;;;12.10;99.90;;;;;;4991672;28;19910;-75
2024/04/04 02:10:49;;;;;;;;;;;12.10;99.90;;;;;;5003178;28;19963;-76
2024/04/04 02:13:15;;;;;;;;;;;12.00;99.90;;;;;;4990688;28;19935;-76
2024/04/04 02:15:41;;;;;;;;;;;12.10;99.90;;;;;;5010799;28;19964;-76
2024/04/04 02:18:07;;;;;;;;;;;12.20;99.90;;;;;;5009538;28;19917;-77
2024/04/04 02:20:32;;;;;;;;;;;12.20;99.90;;;;;;5027722;28;19897;-77
2024/04/04 02:22:58;;;;;;;;;;;12.10;99.90;;;;;;5023106;28;19995;-77
2024/04/04 02:25:24;;;;;;;;;;;12.00;99.90;;;;;;4999957;28;19913;-77
2024/04/04 02:27:49;;;;;;;;;;;12.10;99.90;;;;;;5008437;28;20043;-77
2024/04/04 02:30:15;;;;;;;;;;;12.00;99.90;;;;;;5008378;28;19954;-78
2024/04/04 02:32:41;;;;;;;;;;;12.10;99.90;;;;;;5008478;28;20380;-78
2024/04/04 02:35:08;;;;;;;;;;;12.10;99.90;;;;;;5008900;28;19909;-77
2024/04/04 02:37:34;;;;;;;;;;;12.10;99.90;;;;;;5009586;28;19914;-77
2024/04/04 02:39:59;;;;;;;;;;;12.10;99.90;;;;;;5008491;28;19913;-77
2024/04/04 02:42:26;;;;;;;;;;;12.20;99.90;;;;;;5004137;28;19922;-77
2024/04/04 02:44:51;;;;;;;;;;;12.20;99.90;;;;;;5010072;28;19963;-77
2024/04/04 02:47:17;;;;;;;;;;;12.20;99.90;;;;;;5008099;28;20330;-77
2024/04/04 02:49:42;;;;;;;;;;;12.10;99.90;;;;;;4997297;28;19909;-78
2024/04/04 02:52:08;;;;;;;;;;;12.10;99.90;;;;;;5009698;28;20365;-77
2024/04/04 02:54:34;;;;;;;;;;;12.20;99.90;;;;;;5011177;28;19961;-77
2024/04/04 02:56:59;;;;;;;;;;;12.30;99.90;;;;;;5007508;28;19909;-77
2024/04/04 02:59:25;;;;;;;;;;;12.30;99.90;;;;;;4992761;28;19914;-76
2024/04/04 03:01:51;;;;;;;;;;;12.20;99.90;;;;;;4990498;28;19922;-77
2024/04/04 03:04:16;;;;;;;;;;;12.20;99.90;;;;;;4991348;28;19909;-77
2024/04/04 03:06:42;;;;;;;;;;;12.30;99.90;;;;;;4991813;28;20354;-78
2024/04/04 03:09:09;;;;;;;;;;;12.30;99.90;;;;;;4990966;28;19953;-77
2024/04/04 03:11:34;;;;;;;;;;;12.20;99.90;;;;;;4990833;28;20383;-77
2024/04/04 03:14:00;;;;;;;;;;;12.20;99.90;;;;;;4989861;28;19914;-77
2024/04/04 03:16:25;;;;;;;;;;;12.30;99.90;;;;;;4989760;28;20013;-77
2024/04/04 03:18:51;;;;;;;;;;;12.40;99.90;;;;;;4990162;28;19929;-77
2024/04/04 03:21:16;;;;;;;;;;;12.30;99.90;;;;;;4990165;28;20017;-77
2024/04/04 03:23:42;;;;;;;;;;;12.40;99.90;;;;;;4991031;28;19913;-77
2024/04/04 03:26:07;;;;;;;;;;;12.40;99.90;;;;;;4990728;28;19910;-78
2024/04/04 03:28:33;;;;;;;;;;;12.60;99.90;;;;;;4989933;28;20368;-78
2024/04/04 03:30:58;;;;;;;;;;;12.60;99.90;;;;;;4991375;28;19910;-78
2024/04/04 03:33:24;;;;;;;;;;;12.60;99.90;;;;;;4989288;28;20427;-78
2024/04/04 03:35:49;;;;;;;;;;;12.60;99.90;;;;;;4990140;28;19910;-78
2024/04/04 03:38:15;;;;;;;;;;;12.70;99.90;;;;;;4990815;28;19984;-78
2024/04/04 03:40:40;;;;;;;;;;;12.60;99.90;;;;;;4990089;28;19930;-78
2024/04/04 03:43:06;;;;;;;;;;;12.50;99.90;;;;;;4990912;28;19956;-78
2024/04/04 03:45:37;;;;;;;;;;;12.60;99.90;;;;;;4990350;28;19920;-78
2024/04/04 03:48:03;;;;;;;;;;;12.60;99.90;;;;;;4988875;28;20006;-78
2024/04/04 03:50:29;;;;;;;;;;;12.60;99.90;;;;;;4989405;28;19945;-78
2024/04/04 03:52:54;;;;;;;;;;;12.60;99.90;;;;;;4990213;28;19910;-78
2024/04/04 03:55:20;;;;;;;;;;;12.70;99.90;;;;;;4990285;28;20022;-78
2024/04/04 03:57:45;;;;;;;;;;;12.80;99.90;;;;;;4989462;28;19914;-78
2024/04/04 04:00:11;;;;;;;;;;;12.90;99.90;;;;;;4988694;28;19957;-78
2024/04/04 04:02:36;;;;;;;;;;;13.00;99.90;;;;;;4988832;28;19965;-78
2024/04/04 04:05:03;;;;;;;;;;;13.00;99.90;;;;;;4987479;28;19918;-78
2024/04/04 04:07:28;;;;;;;;;;;12.90;99.90;;;;;;4989180;28;19914;-78
2024/04/04 04:09:54;;;;;;;;;;;12.90;99.90;;;;;;4994485;28;19955;-78
2024/04/04 04:12:19;;;;;;;;;;;12.80;99.90;;;;;;5002563;28;19996;-77
2024/04/04 04:14:45;;;;;;;;;;;13.00;99.90;;;;;;4993760;28;19963;-77
2024/04/04 04:17:11;;;;;;;;;;;13.00;99.90;;;;;;5000372;28;19917;-77
2024/04/04 04:19:37;;;;;;;;;;;13.10;99.90;;;;;;4999941;28;19956;-80
2024/04/04 04:22:03;;;;;;;;;;;13.10;99.90;;;;;;4981027;28;19924;-77
2024/04/04 04:24:28;;;;;;;;;;;13.10;99.90;;;;;;5000153;28;19909;-78
2024/04/04 04:26:54;;;;;;;;;;;13.00;99.90;;;;;;4987696;28;20008;-77
2024/04/04 04:29:19;;;;;;;;;;;13.00;99.90;;;;;;4993637;28;19917;-77
2024/04/04 04:31:45;;;;;;;;;;;13.10;99.90;;;;;;5008528;28;19925;-77
2024/04/04 04:34:11;;;;;;;;;;;13.00;99.90;;;;;;4999807;28;19914;-78
2024/04/04 04:36:37;;;;;;;;;;;12.90;99.90;;;;;;4990558;28;19910;-78
2024/04/04 04:39:04;;;;;;;;;;;13.00;99.90;;;;;;4989411;28;19914;-78
2024/04/04 04:41:30;;;;;;;;;;;12.90;99.90;;;;;;4992185;28;19971;-78
2024/04/04 04:43:55;;;;;;;;;;;13.00;99.90;;;;;;4991744;28;20314;-78
2024/04/04 04:46:21;;;;;;;;;;;13.00;99.90;;;;;;4993831;28;19921;-78
2024/04/04 04:48:46;;;;;;;;;;;13.00;99.90;;;;;;4994168;28;19984;-78
2024/04/04 04:51:12;;;;;;;;;;;13.00;99.90;;;;;;4999044;28;19918;-77
2024/04/04 04:53:38;;;;;;;;;;;13.10;99.90;;;;;;5000580;28;19917;-78
2024/04/04 04:56:04;;;;;;;;;;;13.10;99.90;;;;;;4997430;28;19917;-78
2024/04/04 04:58:30;;;;;;;;;;;13.00;99.90;;;;;;4994680;28;19910;-78
2024/04/04 05:00:55;;;;;;;;;;;13.10;99.90;;;;;;4995403;28;19918;-78
2024/04/04 05:03:22;;;;;;;;;;;13.10;99.90;;;;;;4998058;28;19929;-78
2024/04/04 05:05:48;;;;;;;;;;;13.10;99.90;;;;;;5004802;28;19914;-77
2024/04/04 05:08:14;;;;;;;;;;;13.10;99.90;;;;;;5011952;28;19909;-76
2024/04/04 05:10:40;;;;;;;;;;;13.10;99.90;;;;;;4948043;28;1825787;-76
2024/04/04 05:13:06;;;;;;;;;;;13.20;99.90;;;;;;5007094;28;19933;-76
2024/04/04 05:15:31;;;;;;;;;;;13.10;99.90;;;;;;4998278;28;19983;-77
2024/04/04 05:17:57;;;;;;;;;;;13.10;99.90;;;;;;5010376;28;19910;-77
2024/04/04 05:20:22;;;;;;;;;;;13.00;99.90;;;;;;5009489;28;19910;-77
2024/04/04 05:22:48;;;;;;;;;;;13.10;99.90;;;;;;5010987;28;19924;-77
2024/04/04 05:25:16;;;;;;;;;;;13.10;99.90;;;;;;5010758;28;19975;-77
2024/04/04 05:27:42;;;;;;;;;;;13.10;99.90;;;;;;5009645;28;20004;-77
2024/04/04 05:30:13;;;;;;;;;;;13.10;99.90;;;;;;5006632;28;19998;-76
2024/04/04 05:32:42;;;;;;;;;;;13.20;99.90;;;;;;5003747;28;19917;-76
2024/04/04 05:35:09;;;;;;;;;;;13.20;99.90;;;;;;4997140;28;19976;-77
2024/04/04 05:37:36;;;;;;;;;;;13.20;99.90;;;;;;5005189;28;19975;-76
2024/04/04 05:40:02;;;;;;;;;;;13.20;99.90;;;;;;4993490;28;19914;-77
2024/04/04 05:42:34;;;;;;;;;;;13.20;99.90;;;;;;4995641;28;19924;-76
2024/04/04 05:45:00;;;;;;;;;;;13.20;99.90;;;;;;4998583;28;20373;-77
2024/04/04 05:47:26;;;;;;;;;;;12.90;99.90;;;;;;4993696;28;19941;-77
2024/04/04 05:49:51;;;;;;;;;;;12.80;99.90;;;;;;4996482;28;19979;-78
2024/04/04 05:52:17;;;;;;;;;;;12.70;99.90;;;;;;5009293;28;20048;-78
2024/04/04 05:54:46;;;;;;;;;;;12.70;99.90;;;;;;5002854;28;19925;-76
2024/04/04 05:57:12;;;;;;;;;;;12.70;99.90;;;;;;4999986;28;19922;-77
2024/04/04 05:59:37;;;;;;;;;;;12.70;99.90;;;;;;4996656;28;19913;-77
2024/04/04 06:02:03;;;;;;;;;;;12.90;99.90;;;;;;4994273;28;20304;-77
2024/04/04 06:04:29;;;;;;;;;;;13.00;99.90;;;;;;4992820;28;19949;-77
2024/04/04 06:06:54;;;;;;;;;;;13.00;99.90;;;;;;4988530;28;19921;-76
2024/04/04 06:09:20;;;;;;;;;;;12.90;99.90;;;;;;4984487;28;19951;-77
2024/04/04 06:11:45;;;;;;;;;;;12.80;99.90;;;;;;4986796;28;19925;-77
2024/04/04 06:14:11;;;;;;;;;;;13.00;99.90;;;;;;4993083;28;19913;-77
2024/04/04 06:16:36;;;;;;;;;;;12.90;99.90;;;;;;4985940;28;19910;-76
2024/04/04 06:19:02;;;;;;;;;;;12.90;99.90;;;;;;4985486;28;19945;-76
2024/04/04 06:21:27;;;;;;;;;;;13.00;99.90;;;;;;4976407;28;19968;-76
2024/04/04 06:23:53;;;;;;;;;;;13.10;99.90;;;;;;4994599;28;19951;-75
2024/04/04 06:26:18;;;;;;;;;;;13.10;99.90;;;;;;4994066;28;20290;-76
2024/04/04 06:28:44;;;;;;;;;;;13.00;99.90;;;;;;4990298;28;20266;-76
2024/04/04 06:31:10;;;;;;;;;;;12.90;99.90;;;;;;4992600;28;20079;-75
2024/04/04 06:33:36;;;;;;;;;;;12.90;99.90;;;;;;4990191;28;19945;-75
2024/04/04 06:36:01;;;;;;;;;;;12.70;99.90;;;;;;4995939;28;19948;-75
2024/04/04 06:38:27;;;;;;;;;;;12.50;99.90;;;;;;4986155;28;19918;-76
2024/04/04 06:40:52;;;;;;;;;;;12.50;99.90;;;;;;4991924;28;19926;-75
2024/04/04 06:43:18;;;;;;;;;;;12.60;99.90;;;;;;5008659;28;20293;-76
2024/04/04 06:45:43;;;;;;;;;;;12.70;99.90;;;;;;4998558;28;19921;-75
2024/04/04 06:48:09;;;;;;;;;;;12.70;99.90;;;;;;4988840;28;19910;-75
2024/04/04 06:50:34;;;;;;;;;;;12.80;99.90;;;;;;5018696;28;19914;-75
2024/04/04 06:53:01;;;;;;;;;;;12.70;99.90;;;;;;4990049;28;19971;-76
2024/04/04 06:55:27;;;;;;;;;;;12.70;99.90;;;;;;4989233;28;20269;-74
2024/04/04 06:57:52;;;;;;;;;;;12.70;99.90;;;;;;4990663;28;19910;-74
2024/04/04 07:00:18;;;;;;;;;;;12.70;99.90;;;;;;4989308;28;19921;-75
2024/04/04 07:02:43;;;;;;;;;;;12.80;99.90;;;;;;4988902;28;19922;-75
2024/04/04 07:05:09;;;;;;;;;;;12.80;99.90;;;;;;4990956;28;19941;-75
2024/04/04 07:07:34;;;;;;;;;;;13.10;99.90;;;;;;4995527;28;19931;-75
2024/04/04 07:10:07;;;;;;;;;;;13.10;99.90;;;;;;4994450;28;20354;-76
2024/04/04 07:12:32;;;;;;;;;;;13.10;99.90;;;;;;4993347;28;20404;-76
2024/04/04 07:14:58;;;;;;;;;;;13.20;99.90;;;;;;4993652;28;19952;-75
2024/04/04 07:17:24;;;;;;;;;;;13.20;99.90;;;;;;4993329;28;19916;-76
2024/04/04 07:19:53;;;;;;;;;;;13.20;99.90;;;;;;4991541;28;20369;-76
2024/04/04 07:22:18;;;;;;;;;;;13.00;99.90;;;;;;4997049;28;20327;-75
2024/04/04 07:24:44;;;;;;;;;;;12.80;99.90;;;;;;4991871;28;19917;-75
2024/04/04 07:27:09;;;;;;;;;;;13.00;99.90;;;;;;4990971;28;19921;-74
2024/04/04 07:29:35;;;;;;;;;;;13.10;99.90;;;;;;4990124;28;19914;-74
2024/04/04 07:32:00;;;;;;;;;;;13.20;99.90;;;;;;4988685;28;19914;-76
2024/04/04 07:34:26;;;;;;;;;;;13.30;99.90;;;;;;4988706;28;20297;-76
2024/04/04 07:36:51;;;;;;;;;;;13.30;99.90;;;;;;4994595;28;19917;-76
2024/04/04 07:39:20;;;;;;;;;;;13.30;99.90;;;;;;4988105;28;20399;-76
2024/04/04 07:41:49;;;;;;;;;;;13.30;99.90;;;;;;4995268;28;19921;-76
2024/04/04 07:44:14;;;;;;;;;;;13.30;99.90;;;;;;4990733;28;20373;-75
2024/04/04 07:46:41;;;;;;;;;;;13.50;99.90;;;;;;4995882;28;19909;-76
2024/04/04 07:49:06;;;;;;;;;;;13.50;99.90;;;;;;4990644;28;19917;-75
2024/04/04 07:51:32;;;;;;;;;;;13.70;99.90;;;;;;4993348;28;19921;-75
2024/04/04 07:53:58;;;;;;;;;;;13.80;99.90;;;;;;4990166;28;20322;-75
2024/04/04 07:56:23;;;;;;;;;;;13.80;99.90;;;;;;4990091;28;20270;-76
2024/04/04 07:58:49;;;;;;;;;;;13.90;99.90;;;;;;4986963;28;19910;-76
2024/04/04 08:01:15;;;;;;;;;;;13.90;99.90;;;;;;4984055;28;19956;-76
2024/04/04 08:03:42;;;;;;;;;;;13.90;99.90;;;;;;4988826;28;19913;-76
2024/04/04 08:06:08;;;;;;;;;;;13.80;99.90;;;;;;4994217;28;19910;-76
2024/04/04 08:08:33;;;;;;;;;;;14.00;99.90;;;;;;4986847;28;20254;-75
2024/04/04 08:10:59;;;;;;;;;;;14.10;99.90;;;;;;4987837;28;19918;-75
2024/04/04 08:13:25;;;;;;;;;;;14.10;99.90;;;;;;4988844;28;19917;-77
2024/04/04 08:15:51;;;;;;;;;;;14.10;99.90;;;;;;4993664;28;19910;-77
2024/04/04 08:18:19;;;;;;;;;;;14.30;99.90;;;;;;4992737;28;19932;-76
2024/04/04 08:20:45;;;;;;;;;;;14.30;99.90;;;;;;4995711;28;19914;-74
2024/04/04 08:23:11;;;;;;;;;;;14.30;99.90;;;;;;4993908;28;20005;-75
2024/04/04 08:25:36;;;;;;;;;;;14.40;99.90;;;;;;4994729;28;20382;-76
2024/04/04 08:28:04;;;;;;;;;;;14.50;99.90;;;;;;4992141;28;19958;-76
2024/04/04 08:30:30;;;;;;;;;;;14.50;99.90;;;;;;4995942;28;19962;-75
2024/04/04 08:32:55;;;;;;;;;;;14.60;99.90;;;;;;4990245;28;19917;-75
2024/04/04 08:35:22;;;;;;;;;;;14.70;99.90;;;;;;4995048;28;19914;-76
2024/04/04 08:37:48;;;;;;;;;;;14.60;99.90;;;;;;4993180;28;20008;-75
2024/04/04 08:40:14;;;;;;;;;;;14.70;99.90;;;;;;4990716;28;19914;-75
2024/04/04 08:42:41;;;;;;;;;;;14.60;99.90;;;;;;4992683;28;19918;-76
2024/04/04 08:45:08;;;;;;;;;;;14.50;99.90;;;;;;4990525;28;19924;-75
2024/04/04 08:47:35;;;;;;;;;;;14.50;99.90;;;;;;4991601;28;19921;-75
2024/04/04 08:50:01;;;;;;;;;;;14.50;99.90;;;;;;4992744;28;19922;-75
2024/04/04 08:52:26;;;;;;;;;;;14.60;99.90;;;;;;4999452;28;19996;-75
2024/04/04 08:54:52;;;;;;;;;;;14.60;99.90;;;;;;5022908;28;19914;-75
2024/04/04 08:57:18;;;;;;;;;;;14.70;99.90;;;;;;4994660;28;19910;-75
2024/04/04 08:59:53;;;;;;;;;;;14.80;99.90;;;;;;4989771;28;19964;-76
2024/04/04 09:02:18;;;;;;;;;;;14.60;99.90;;;;;;4993533;28;19924;-75
2024/04/04 09:04:44;;;;;;;;;;;14.60;99.90;;;;;;4993488;28;19914;-75
2024/04/04 09:07:10;;;;;;;;;;;14.50;99.90;;;;;;4992422;28;19983;-75
2024/04/04 09:09:43;;;;;;;;;;;14.60;99.90;;;;;;4993578;28;19937;-75
2024/04/04 09:12:11;;;;;;;;;;;15.00;99.90;;;;;;4995681;28;19918;-75
2024/04/04 09:14:37;;;;;;;;;;;15.10;99.90;;;;;;4995470;28;19945;-75
2024/04/04 09:17:03;;;;;;;;;;;15.00;99.90;;;;;;4989619;28;19914;-75
2024/04/04 09:19:29;;;;;;;;;;;15.20;99.90;;;;;;4990300;28;19914;-75
2024/04/04 09:21:54;;;;;;;;;;;15.00;99.90;;;;;;4993829;28;20399;-74
2024/04/04 09:24:20;;;;;;;;;;;15.10;99.90;;;;;;4996948;28;19922;-74
2024/04/04 09:26:49;;;;;;;;;;;15.10;99.90;;;;;;4990798;28;19945;-75
2024/04/04 09:29:16;;;;;;;;;;;15.10;99.90;;;;;;4995670;28;19959;-74
2024/04/04 09:31:43;;;;;;;;;;;15.10;99.90;;;;;;4989833;28;19925;-73
2024/04/04 09:34:10;;;;;;;;;;;15.10;99.90;;;;;;5003144;28;19921;-75
2024/04/04 09:36:37;;;;;;;;;;;15.10;99.90;;;;;;4982813;28;19915;-75
2024/04/04 09:39:08;;;;;;;;;;;15.20;99.90;;;;;;4997165;28;19917;-75
2024/04/04 09:41:36;;;;;;;;;;;15.30;99.90;;;;;;4989264;28;19918;-75
2024/04/04 09:44:02;;;;;;;;;;;15.40;99.90;;;;;;4990989;28;19957;-75
2024/04/04 09:46:29;;;;;;;;;;;15.10;99.90;;;;;;4989290;28;19917;-75
2024/04/04 09:48:55;;;;;;;;;;;14.80;99.90;;;;;;4988620;28;20295;-74
2024/04/04 09:51:21;;;;;;;;;;;14.60;99.90;;;;;;4990273;28;19910;-75
2024/04/04 09:53:47;;;;;;;;;;;14.30;99.90;;;;;;5002782;28;19910;-75
2024/04/04 09:56:13;;;;;;;;;;;14.30;99.90;;;;;;4995508;28;19921;-75
2024/04/04 09:58:41;;;;;;;;;;;14.30;99.90;;;;;;4990629;28;20041;-74
2024/04/04 10:01:20;;;;;;;;;;;14.40;99.90;;;;;;4987778;28;19965;-73
2024/04/04 10:03:49;;;;;;;;;;;14.60;99.90;;;;;;4991837;28;19917;-74
2024/04/04 10:06:28;;;;;;;;;;;14.80;99.90;;;;;;4997006;28;20394;-73
2024/04/04 10:08:53;;;;;;;;;;;14.90;99.90;;;;;;4989004;28;20435;-74
2024/04/04 10:11:28;;;;;;;;;;;14.80;99.90;;;;;;4987554;28;19926;-75
2024/04/04 10:13:54;;;;;;;;;;;14.90;99.90;;;;;;4989319;28;19918;-74
2024/04/04 10:16:32;;;;;;;;;;;14.90;99.90;;;;;;4993538;28;19963;-74
2024/04/04 10:19:03;;;;;;;;;;;14.70;99.90;;;;;;4993915;28;20000;-73
2024/04/04 10:21:29;;;;;;;;;;;14.70;99.90;;;;;;4989668;28;19918;-72
2024/04/04 10:23:59;;;;;;;;;;;14.80;99.90;;;;;;4988437;28;20288;-73
2024/04/04 10:26:25;;;;;;;;;;;14.70;99.90;;;;;;4989827;28;19955;-73
2024/04/04 10:28:50;;;;;;;;;;;14.80;99.90;;;;;;4992491;28;19918;-73
2024/04/04 10:31:15;;;;;;;;;;;15.00;99.90;;;;;;4991412;28;19977;-73
2024/04/04 10:33:41;;;;;;;;;;;15.10;99.90;;;;;;4989602;28;19913;-72
2024/04/04 10:36:07;;;;;;;;;;;14.90;99.90;;;;;;4984444;28;19968;-73
2024/04/04 10:38:34;;;;;;;;;;;14.90;99.90;;;;;;4992475;28;19924;-73
2024/04/04 10:41:00;;;;;;;;;;;14.90;99.90;;;;;;4993194;28;20024;-73
2024/04/04 10:43:25;;;;;;;;;;;14.90;99.90;;;;;;4990863;28;20013;-74
2024/04/04 10:45:51;;;;;;;;;;;14.70;99.90;;;;;;4992239;28;19972;-73
2024/04/04 10:48:16;;;;;;;;;;;14.70;99.90;;;;;;4994488;28;19909;-73
2024/04/04 10:50:42;;;;;;;;;;;14.80;99.90;;;;;;4989016;28;20453;-73
2024/04/04 10:53:07;;;;;;;;;;;14.70;99.90;;;;;;4992998;28;20000;-73
2024/04/04 10:55:33;;;;;;;;;;;14.60;99.90;;;;;;4990192;28;19961;-71
2024/04/04 10:57:59;;;;;;;;;;;14.70;99.90;;;;;;4991007;28;19941;-74
2024/04/04 11:00:29;;;;;;;;;;;14.80;99.90;;;;;;4992661;28;19936;-74
2024/04/04 11:02:55;;;;;;;;;;;14.70;99.90;;;;;;4988903;28;19918;-73
2024/04/04 11:05:20;;;;;;;;;;;14.90;99.90;;;;;;4998806;28;19921;-72
2024/04/04 11:07:46;;;;;;;;;;;15.00;99.90;;;;;;4994348;28;19917;-73
2024/04/04 11:10:12;;;;;;;;;;;15.00;99.90;;;;;;4989625;28;19929;-73
2024/04/04 11:12:38;;;;;;;;;;;15.00;99.90;;;;;;4993440;28;20262;-73
2024/04/04 11:15:07;;;;;;;;;;;15.00;99.90;;;;;;4994156;28;20030;-72
2024/04/04 11:17:34;;;;;;;;;;;15.10;99.90;;;;;;4992613;28;19957;-73
2024/04/04 11:20:14;;;;;;;;;;;15.40;99.90;;;;;;4992996;28;19909;-72
2024/04/04 11:22:40;;;;;;;;;;;15.60;99.90;;;;;;4991347;28;19928;-73
2024/04/04 11:25:06;;;;;;;;;;;15.80;99.90;;;;;;4993150;28;19917;-72
2024/04/04 11:27:32;;;;;;;;;;;15.80;99.90;;;;;;4993048;28;19914;-74
2024/04/04 11:29:58;;;;;;;;;;;15.70;99.90;;;;;;4991909;28;20012;-72
2024/04/04 11:32:23;;;;;;;;;;;15.90;99.90;;;;;;4993709;28;19909;-72
2024/04/04 11:34:49;;;;;;;;;;;16.10;99.90;;;;;;4987565;28;20005;-72
2024/04/04 11:37:14;;;;;;;;;;;16.30;99.90;;;;;;4992607;28;19988;-71
2024/04/04 11:39:40;;;;;;;;;;;16.60;99.90;;;;;;4985837;28;19952;-72
2024/04/04 11:42:06;;;;;;;;;;;16.60;99.90;;;;;;4994923;28;19957;-72
2024/04/04 11:44:31;;;;;;;;;;;16.70;99.90;;;;;;4989650;28;19910;-72
2024/04/04 11:46:57;;;;;;;;;;;16.60;99.90;;;;;;4990642;28;19916;-72
2024/04/04 11:49:23;;;;;;;;;;;16.50;99.90;;;;;;4988681;28;19914;-72
2024/04/04 11:51:49;;;;;;;;;;;16.70;99.90;;;;;;4991298;28;19977;-72
2024/04/04 11:54:14;;;;;;;;;;;16.80;99.90;;;;;;4990804;28;20035;-73
2024/04/04 11:56:40;;;;;;;;;;;16.90;99.90;;;;;;4992719;28;19957;-72
2024/04/04 11:59:05;;;;;;;;;;;16.90;99.90;;;;;;5007413;28;19954;-72
2024/04/04 12:01:31;;;;;;;;;;;16.90;99.90;;;;;;4990479;28;19922;-72
2024/04/04 12:04:00;;;;;;;;;;;16.80;99.90;;;;;;4987148;28;19909;-73
2024/04/04 12:06:25;;;;;;;;;;;16.60;99.90;;;;;;4988060;28;19988;-74
2024/04/04 12:08:51;;;;;;;;;;;16.60;99.90;;;;;;4984311;28;19918;-73
2024/04/04 12:11:16;;;;;;;;;;;16.70;99.90;;;;;;4990195;28;20004;-73
2024/04/04 12:13:42;;;;;;;;;;;16.60;99.90;;;;;;4991124;28;19971;-77
2024/04/04 12:16:08;;;;;;;;;;;16.60;99.90;;;;;;4991158;28;19910;-76
2024/04/04 12:21:17;;;;;;;;;;;16.70;99.90;;;;;;4985865;28;20005;-78
2024/04/04 12:23:46;;;;;;;;;;;16.80;99.90;;;;;;4991885;28;19949;-76
2024/04/04 12:26:12;;;;;;;;;;;17.10;99.90;;;;;;4989465;28;19910;-77
2024/04/04 12:28:38;;;;;;;;;;;17.30;99.90;;;;;;4991898;28;19914;-77
2024/04/04 12:31:03;;;;;;;;;;;17.40;99.90;;;;;;4989637;28;20353;-76
2024/04/04 12:33:29;;;;;;;;;;;17.60;99.90;;;;;;4986150;28;19915;-77
2024/04/04 12:35:55;;;;;;;;;;;17.70;99.90;;;;;;4991577;28;20269;-76
2024/04/04 12:38:20;;;;;;;;;;;17.80;99.90;;;;;;4988825;28;19937;-77
2024/04/04 12:40:46;;;;;;;;;;;17.90;99.90;;;;;;4988266;28;19914;-75
2024/04/04 12:43:11;;;;;;;;;;;18.10;99.90;;;;;;5003059;28;19917;-76
2024/04/04 12:45:37;;;;;;;;;;;18.30;99.90;;;;;;4992026;28;20008;-76
2024/04/04 12:48:04;;;;;;;;;;;18.30;99.90;;;;;;4989742;28;19960;-77
2024/04/04 12:50:29;;;;;;;;;;;18.60;99.90;;;;;;4993068;28;19940;-76
2024/04/04 12:52:55;;;;;;;;;;;18.50;99.90;;;;;;4994326;28;19910;-78
2024/04/04 12:55:21;;;;;;;;;;;18.50;99.90;;;;;;5014840;28;19910;-80
2024/04/04 12:57:47;;;;;;;;;;;18.50;99.90;;;;;;4990338;28;19930;-76
2024/04/04 13:00:12;;;;;;;;;;;18.40;99.90;;;;;;4986755;28;19914;-76
2024/04/04 13:02:38;;;;;;;;;;;18.30;99.90;;;;;;4987200;28;19978;-76
2024/04/04 13:05:05;;;;;;;;;;;18.20;99.90;;;;;;4988889;28;20337;-76
2024/04/04 13:07:31;;;;;;;;;;;18.10;99.90;;;;;;4989839;28;19914;-77
2024/04/04 13:09:56;;;;;;;;;;;17.90;99.90;;;;;;4986628;28;20358;-76
2024/04/04 13:12:22;;;;;;;;;;;17.50;99.90;;;;;;4990996;28;19952;-76
2024/04/04 13:14:49;;;;;;;;;;;17.00;99.90;;;;;;4990335;28;20313;-77
2024/04/04 13:17:15;;;;;;;;;;;16.90;99.90;;;;;;5003711;28;19921;-78
2024/04/04 13:19:42;;;;;;;;;;;16.90;99.90;;;;;;5007350;28;19917;-77
2024/04/04 13:22:07;;;;;;;;;;;17.20;99.90;;;;;;4989341;28;19991;-76
2024/04/04 13:24:33;;;;;;;;;;;17.40;99.90;;;;;;4990124;28;19951;-77
2024/04/04 13:26:58;;;;;;;;;;;17.70;99.90;;;;;;4991315;28;19998;-77
2024/04/04 13:29:25;;;;;;;;;;;17.80;99.90;;;;;;4994471;28;20022;-76
2024/04/04 13:31:50;;;;;;;;;;;18.00;99.90;;;;;;4993628;28;19921;-77
2024/04/04 13:34:16;;;;;;;;;;;18.30;99.90;;;;;;4993770;28;19910;-81
2024/04/04 13:36:41;;;;;;;;;;;18.60;99.90;;;;;;4995712;28;19957;-75
2024/04/04 13:39:13;;;;;;;;;;;18.70;99.90;;;;;;4995033;28;19932;-76
2024/04/04 13:41:39;;;;;;;;;;;18.80;99.90;;;;;;4992254;28;19926;-76
2024/04/04 13:44:04;;;;;;;;;;;19.00;99.90;;;;;;4994743;28;19914;-79
2024/04/04 13:46:30;;;;;;;;;;;19.10;99.90;;;;;;4987883;28;21539;-76
2024/04/04 13:48:56;;;;;;;;;;;19.00;99.90;;;;;;4985634;28;19921;-76
2024/04/04 13:51:21;;;;;;;;;;;19.00;99.90;;;;;;4985794;28;20380;-77
2024/04/04 13:53:47;;;;;;;;;;;19.00;99.90;;;;;;4993699;28;19914;-76
2024/04/04 13:56:12;;;;;;;;;;;18.80;99.90;;;;;;5009218;28;20434;-77
2024/04/04 13:58:38;;;;;;;;;;;18.60;99.90;;;;;;4989567;28;19910;-76
2024/04/04 14:01:03;;;;;;;;;;;18.60;99.90;;;;;;4991354;28;19916;-79
2024/04/04 14:03:29;;;;;;;;;;;18.60;99.90;;;;;;4989036;28;20411;-76
2024/04/04 14:05:54;;;;;;;;;;;18.40;99.90;;;;;;4990067;28;19910;-76
2024/04/04 14:08:20;;;;;;;;;;;18.30;99.90;;;;;;4986886;28;20002;-79
2024/04/04 14:10:45;;;;;;;;;;;18.10;99.90;;;;;;4991410;28;19962;-77
2024/04/04 14:13:11;;;;;;;;;;;18.00;99.90;;;;;;4987353;28;19946;-78